sensor_id;sensor_type;location;lat;lon;timestamp;temperature;humidity
23532;DHT22;11943;52.270;20.978;2023-06-22T00:01:01;19.90;99.90
23532;DHT22;11943;52.270;20.978;2023-06-22T00:03:26;19.80;99.90
23532;DHT22;11943;52.270;20.978;2023-06-22T00:05:52;19.80;99.90
23532;DHT22;11943;52.270;20.978;2023-06-22T00:08:19;19.80;99.90
23532;DHT22;11943;52.270;20.978;2023-06-22T00:10:45;19.80;99.90
23532;DHT22;11943;52.270;20.978;2023-06-22T00:13:11;19.80;99.90
23532;DHT22;11943;52.270;20.978;2023-06-22T00:15:37;19.80;99.90
23532;DHT22;11943;52.270;20.978;2023-06-22T00:18:05;19.80;99.90
23532;DHT22;11943;52.270;20.978;2023-06-22T00:20:31;19.70;99.90
23532;DHT22;11943;52.270;20.978;2023-06-22T00:22:58;19.70;99.90
23532;DHT22;11943;52.270;20.978;2023-06-22T00:25:25;19.70;99.90
23532;DHT22;11943;52.270;20.978;2023-06-22T00:27:51;19.70;99.90
23532;DHT22;11943;52.270;20.978;2023-06-22T00:30:18;19.60;99.90
23532;DHT22;11943;52.270;20.978;2023-06-22T00:32:45;19.60;99.90
23532;DHT22;11943;52.270;20.978;2023-06-22T00:35:12;19.60;99.90
23532;DHT22;11943;52.270;20.978;2023-06-22T00:37:38;19.60;99.90
23532;DHT22;11943;52.270;20.978;2023-06-22T00:40:10;19.60;99.90
23532;DHT22;11943;52.270;20.978;2023-06-22T00:42:40;19.60;99.90
23532;DHT22;11943;52.270;20.978;2023-06-22T00:45:07;19.70;99.90
23532;DHT22;11943;52.270;20.978;2023-06-22T00:47:34;19.70;99.90
23532;DHT22;11943;52.270;20.978;2023-06-22T00:50:01;19.70;99.90
23532;DHT22;11943;52.270;20.978;2023-06-22T00:52:28;19.70;99.90
23532;DHT22;11943;52.270;20.978;2023-06-22T00:54:56;19.70;99.90
23532;DHT22;11943;52.270;20.978;2023-06-22T00:57:24;19.60;99.90
23532;DHT22;11943;52.270;20.978;2023-06-22T00:59:54;19.60;99.90
23532;DHT22;11943;52.270;20.978;2023-06-22T01:02:20;19.60;99.90
23532;DHT22;11943;52.270;20.978;2023-06-22T01:04:45;19.50;99.90
23532;DHT22;11943;52.270;20.978;2023-06-22T01:07:38;19.60;99.90
23532;DHT22;11943;52.270;20.978;2023-06-22T01:13:04;19.50;99.90
23532;DHT22;11943;52.270;20.978;2023-06-22T01:15:38;19.50;99.90
23532;DHT22;11943;52.270;20.978;2023-06-22T01:18:05;19.50;99.90
23532;DHT22;11943;52.270;20.978;2023-06-22T01:20:34;19.50;99.90
23532;DHT22;11943;52.270;20.978;2023-06-22T01:29:01;19.50;99.90
23532;DHT22;11943;52.270;20.978;2023-06-22T01:31:29;19.50;99.90
23532;DHT22;11943;52.270;20.978;2023-06-22T01:33:59;19.40;99.90
23532;DHT22;11943;52.270;20.978;2023-06-22T01:36:26;19.40;99.90
23532;DHT22;11943;52.270;20.978;2023-06-22T01:38:53;19.40;99.90
23532;DHT22;11943;52.270;20.978;2023-06-22T01:41:20;19.40;99.90
23532;DHT22;11943;52.270;20.978;2023-06-22T01:43:47;19.40;99.90
23532;DHT22;11943;52.270;20.978;2023-06-22T01:46:14;19.40;99.90
23532;DHT22;11943;52.270;20.978;2023-06-22T01:48:40;19.40;99.90
23532;DHT22;11943;52.270;20.978;2023-06-22T01:51:06;19.40;99.90
23532;DHT22;11943;52.270;20.978;2023-06-22T01:53:32;19.40;99.90
23532;DHT22;11943;52.270;20.978;2023-06-22T01:55:57;19.40;99.90
23532;DHT22;11943;52.270;20.978;2023-06-22T01:58:26;19.50;99.90
23532;DHT22;11943;52.270;20.978;2023-06-22T02:01:11;19.50;99.90
23532;DHT22;11943;52.270;20.978;2023-06-22T02:03:52;19.50;99.90
23532;DHT22;11943;52.270;20.978;2023-06-22T02:06:29;19.60;99.90
23532;DHT22;11943;52.270;20.978;2023-06-22T02:09:02;19.50;99.90
23532;DHT22;11943;52.270;20.978;2023-06-22T02:11:31;19.60;99.90
23532;DHT22;11943;52.270;20.978;2023-06-22T02:13:58;19.50;99.90
23532;DHT22;11943;52.270;20.978;2023-06-22T02:16:25;19.60;99.90
23532;DHT22;11943;52.270;20.978;2023-06-22T02:18:55;19.60;99.90
23532;DHT22;11943;52.270;20.978;2023-06-22T02:21:28;19.60;99.90
23532;DHT22;11943;52.270;20.978;2023-06-22T02:23:54;19.70;99.90
23532;DHT22;11943;52.270;20.978;2023-06-22T02:26:20;19.70;99.90
23532;DHT22;11943;52.270;20.978;2023-06-22T02:28:46;19.70;99.90
23532;DHT22;11943;52.270;20.978;2023-06-22T02:31:11;19.70;99.90
23532;DHT22;11943;52.270;20.978;2023-06-22T02:33:37;19.70;99.90
23532;DHT22;11943;52.270;20.978;2023-06-22T02:36:03;19.70;99.90
23532;DHT22;11943;52.270;20.978;2023-06-22T02:38:33;19.70;99.90
23532;DHT22;11943;52.270;20.978;2023-06-22T02:41:00;19.70;99.90
23532;DHT22;11943;52.270;20.978;2023-06-22T02:43:26;19.60;99.90
23532;DHT22;11943;52.270;20.978;2023-06-22T02:45:51;19.60;99.90
23532;DHT22;11943;52.270;20.978;2023-06-22T02:48:17;19.60;99.90
23532;DHT22;11943;52.270;20.978;2023-06-22T02:50:42;19.70;99.90
23532;DHT22;11943;52.270;20.978;2023-06-22T02:53:08;19.70;99.90
23532;DHT22;11943;52.270;20.978;2023-06-22T02:55:34;19.70;99.90
23532;DHT22;11943;52.270;20.978;2023-06-22T02:57:59;19.80;99.90
23532;DHT22;11943;52.270;20.978;2023-06-22T03:00:25;19.80;99.90
23532;DHT22;11943;52.270;20.978;2023-06-22T03:02:56;19.80;99.90
23532;DHT22;11943;52.270;20.978;2023-06-22T03:05:22;19.80;99.90
23532;DHT22;11943;52.270;20.978;2023-06-22T03:07:48;19.80;99.90
23532;DHT22;11943;52.270;20.978;2023-06-22T03:10:14;19.80;99.90
23532;DHT22;11943;52.270;20.978;2023-06-22T03:12:41;19.80;99.90
23532;DHT22;11943;52.270;20.978;2023-06-22T03:15:08;19.80;99.90
23532;DHT22;11943;52.270;20.978;2023-06-22T03:17:35;19.80;99.90
23532;DHT22;11943;52.270;20.978;2023-06-22T03:20:02;19.80;99.90
23532;DHT22;11943;52.270;20.978;2023-06-22T03:22:40;19.80;99.90
23532;DHT22;11943;52.270;20.978;2023-06-22T03:25:08;19.80;99.90
23532;DHT22;11943;52.270;20.978;2023-06-22T03:27:36;19.90;99.90
23532;DHT22;11943;52.270;20.978;2023-06-22T03:30:02;19.90;99.90
23532;DHT22;11943;52.270;20.978;2023-06-22T03:32:28;19.80;99.90
23532;DHT22;11943;52.270;20.978;2023-06-22T03:34:53;19.80;99.90
23532;DHT22;11943;52.270;20.978;2023-06-22T03:37:19;19.80;99.90
23532;DHT22;11943;52.270;20.978;2023-06-22T03:39:45;19.80;99.90
23532;DHT22;11943;52.270;20.978;2023-06-22T03:42:10;19.90;99.90
23532;DHT22;11943;52.270;20.978;2023-06-22T03:44:36;19.90;99.90
23532;DHT22;11943;52.270;20.978;2023-06-22T03:47:03;19.90;99.90
23532;DHT22;11943;52.270;20.978;2023-06-22T03:49:29;20.00;99.90
23532;DHT22;11943;52.270;20.978;2023-06-22T03:51:55;20.00;99.90
23532;DHT22;11943;52.270;20.978;2023-06-22T03:54:20;20.00;99.90
23532;DHT22;11943;52.270;20.978;2023-06-22T03:56:46;20.00;99.90
23532;DHT22;11943;52.270;20.978;2023-06-22T03:59:11;20.10;99.90
23532;DHT22;11943;52.270;20.978;2023-06-22T04:01:37;20.10;99.90
23532;DHT22;11943;52.270;20.978;2023-06-22T04:04:03;20.20;99.90
23532;DHT22;11943;52.270;20.978;2023-06-22T04:06:28;20.20;99.90
23532;DHT22;11943;52.270;20.978;2023-06-22T04:08:54;20.20;99.90
23532;DHT22;11943;52.270;20.978;2023-06-22T04:11:19;20.30;99.90
23532;DHT22;11943;52.270;20.978;2023-06-22T04:13:45;20.30;99.90
23532;DHT22;11943;52.270;20.978;2023-06-22T04:16:11;20.40;99.90
23532;DHT22;11943;52.270;20.978;2023-06-22T04:18:36;20.40;99.90
23532;DHT22;11943;52.270;20.978;2023-06-22T04:21:02;20.40;99.90
23532;DHT22;11943;52.270;20.978;2023-06-22T04:23:28;20.40;99.90
23532;DHT22;11943;52.270;20.978;2023-06-22T04:25:54;20.50;99.90
23532;DHT22;11943;52.270;20.978;2023-06-22T04:28:22;20.60;99.90
23532;DHT22;11943;52.270;20.978;2023-06-22T04:30:47;20.70;99.90
23532;DHT22;11943;52.270;20.978;2023-06-22T04:33:16;20.70;99.90
23532;DHT22;11943;52.270;20.978;2023-06-22T04:35:44;20.80;99.90
23532;DHT22;11943;52.270;20.978;2023-06-22T04:38:12;20.80;99.90
23532;DHT22;11943;52.270;20.978;2023-06-22T04:40:39;20.80;99.90
23532;DHT22;11943;52.270;20.978;2023-06-22T04:43:04;20.80;99.90
23532;DHT22;11943;52.270;20.978;2023-06-22T04:45:32;20.80;99.90
23532;DHT22;11943;52.270;20.978;2023-06-22T04:47:58;20.70;99.90
23532;DHT22;11943;52.270;20.978;2023-06-22T04:50:23;20.70;99.90
23532;DHT22;11943;52.270;20.978;2023-06-22T04:52:50;20.70;99.90
23532;DHT22;11943;52.270;20.978;2023-06-22T04:55:16;20.80;99.90
23532;DHT22;11943;52.270;20.978;2023-06-22T04:57:48;20.80;99.90
23532;DHT22;11943;52.270;20.978;2023-06-22T05:00:18;20.80;99.90
23532;DHT22;11943;52.270;20.978;2023-06-22T05:02:45;20.80;99.90
23532;DHT22;11943;52.270;20.978;2023-06-22T05:05:12;20.80;99.90
23532;DHT22;11943;52.270;20.978;2023-06-22T05:07:49;21.00;99.90
23532;DHT22;11943;52.270;20.978;2023-06-22T05:10:16;20.90;99.90
23532;DHT22;11943;52.270;20.978;2023-06-22T05:12:41;20.80;99.90
23532;DHT22;11943;52.270;20.978;2023-06-22T05:15:08;20.80;99.90
23532;DHT22;11943;52.270;20.978;2023-06-22T05:17:35;20.80;99.90
23532;DHT22;11943;52.270;20.978;2023-06-22T05:20:01;20.80;99.90
23532;DHT22;11943;52.270;20.978;2023-06-22T05:22:27;20.80;99.90
23532;DHT22;11943;52.270;20.978;2023-06-22T05:24:53;20.90;99.90
23532;DHT22;11943;52.270;20.978;2023-06-22T05:27:18;20.90;99.90
23532;DHT22;11943;52.270;20.978;2023-06-22T05:29:44;21.00;99.90
23532;DHT22;11943;52.270;20.978;2023-06-22T05:32:10;21.00;99.90
23532;DHT22;11943;52.270;20.978;2023-06-22T05:34:36;21.10;99.90
23532;DHT22;11943;52.270;20.978;2023-06-22T05:37:02;21.20;99.90
23532;DHT22;11943;52.270;20.978;2023-06-22T05:39:28;21.20;99.90
23532;DHT22;11943;52.270;20.978;2023-06-22T05:41:54;21.20;99.90
23532;DHT22;11943;52.270;20.978;2023-06-22T05:44:20;21.10;99.90
23532;DHT22;11943;52.270;20.978;2023-06-22T05:46:45;21.10;99.90
23532;DHT22;11943;52.270;20.978;2023-06-22T05:49:14;21.20;99.90
23532;DHT22;11943;52.270;20.978;2023-06-22T05:51:40;21.20;99.90
23532;DHT22;11943;52.270;20.978;2023-06-22T05:54:06;21.20;99.90
23532;DHT22;11943;52.270;20.978;2023-06-22T05:56:33;21.10;99.90
23532;DHT22;11943;52.270;20.978;2023-06-22T05:58:59;21.10;99.90
23532;DHT22;11943;52.270;20.978;2023-06-22T06:01:24;21.10;99.90
23532;DHT22;11943;52.270;20.978;2023-06-22T06:03:51;21.20;99.90
23532;DHT22;11943;52.270;20.978;2023-06-22T06:06:18;21.30;99.90
23532;DHT22;11943;52.270;20.978;2023-06-22T06:08:46;21.40;99.90
23532;DHT22;11943;52.270;20.978;2023-06-22T06:11:12;21.50;99.90
23532;DHT22;11943;52.270;20.978;2023-06-22T06:13:38;21.50;99.90
23532;DHT22;11943;52.270;20.978;2023-06-22T06:16:04;21.50;99.90
23532;DHT22;11943;52.270;20.978;2023-06-22T06:18:30;21.60;99.90
23532;DHT22;11943;52.270;20.978;2023-06-22T06:20:55;21.70;99.90
23532;DHT22;11943;52.270;20.978;2023-06-22T06:23:21;21.70;99.90
23532;DHT22;11943;52.270;20.978;2023-06-22T06:25:47;21.70;99.90
23532;DHT22;11943;52.270;20.978;2023-06-22T06:28:12;21.70;99.90
23532;DHT22;11943;52.270;20.978;2023-06-22T06:30:38;21.80;99.90
23532;DHT22;11943;52.270;20.978;2023-06-22T06:33:04;21.80;99.90
23532;DHT22;11943;52.270;20.978;2023-06-22T06:35:34;22.00;99.90
23532;DHT22;11943;52.270;20.978;2023-06-22T06:38:00;22.20;99.90
23532;DHT22;11943;52.270;20.978;2023-06-22T06:40:26;22.30;99.90
23532;DHT22;11943;52.270;20.978;2023-06-22T06:42:51;22.60;99.90
23532;DHT22;11943;52.270;20.978;2023-06-22T06:45:19;22.70;99.90
23532;DHT22;11943;52.270;20.978;2023-06-22T06:47:45;22.70;99.90
23532;DHT22;11943;52.270;20.978;2023-06-22T06:50:11;22.70;99.90
23532;DHT22;11943;52.270;20.978;2023-06-22T06:52:38;22.90;99.90
23532;DHT22;11943;52.270;20.978;2023-06-22T06:55:04;23.10;99.90
23532;DHT22;11943;52.270;20.978;2023-06-22T06:57:33;23.20;99.90
23532;DHT22;11943;52.270;20.978;2023-06-22T06:59:59;23.30;99.90
23532;DHT22;11943;52.270;20.978;2023-06-22T07:02:25;23.40;99.90
23532;DHT22;11943;52.270;20.978;2023-06-22T07:04:53;23.50;99.90
23532;DHT22;11943;52.270;20.978;2023-06-22T07:07:20;23.70;99.90
23532;DHT22;11943;52.270;20.978;2023-06-22T07:09:46;23.90;99.90
23532;DHT22;11943;52.270;20.978;2023-06-22T07:12:12;23.80;99.90
23532;DHT22;11943;52.270;20.978;2023-06-22T07:14:38;23.90;99.90
23532;DHT22;11943;52.270;20.978;2023-06-22T07:17:04;24.00;99.90
23532;DHT22;11943;52.270;20.978;2023-06-22T07:19:29;24.10;99.90
23532;DHT22;11943;52.270;20.978;2023-06-22T07:21:57;24.30;99.90
23532;DHT22;11943;52.270;20.978;2023-06-22T07:24:23;24.70;99.90
23532;DHT22;11943;52.270;20.978;2023-06-22T07:26:49;24.70;99.90
23532;DHT22;11943;52.270;20.978;2023-06-22T07:29:19;24.70;99.90
23532;DHT22;11943;52.270;20.978;2023-06-22T07:31:47;24.80;99.90
23532;DHT22;11943;52.270;20.978;2023-06-22T07:34:13;24.70;99.90
23532;DHT22;11943;52.270;20.978;2023-06-22T07:36:39;24.70;99.90
23532;DHT22;11943;52.270;20.978;2023-06-22T07:39:04;24.90;99.90
23532;DHT22;11943;52.270;20.978;2023-06-22T07:41:32;24.80;99.90
23532;DHT22;11943;52.270;20.978;2023-06-22T07:43:57;25.00;99.90
23532;DHT22;11943;52.270;20.978;2023-06-22T07:46:23;25.20;99.90
23532;DHT22;11943;52.270;20.978;2023-06-22T07:48:49;25.30;99.90
23532;DHT22;11943;52.270;20.978;2023-06-22T07:51:14;25.50;99.90
23532;DHT22;11943;52.270;20.978;2023-06-22T07:53:44;25.40;99.90
23532;DHT22;11943;52.270;20.978;2023-06-22T07:56:13;25.70;99.90
23532;DHT22;11943;52.270;20.978;2023-06-22T07:58:39;25.80;99.90
23532;DHT22;11943;52.270;20.978;2023-06-22T08:01:04;25.90;99.90
23532;DHT22;11943;52.270;20.978;2023-06-22T08:03:31;26.00;99.90
23532;DHT22;11943;52.270;20.978;2023-06-22T08:05:57;26.10;99.90
23532;DHT22;11943;52.270;20.978;2023-06-22T08:08:23;26.40;99.90
23532;DHT22;11943;52.270;20.978;2023-06-22T08:10:49;26.10;99.90
23532;DHT22;11943;52.270;20.978;2023-06-22T08:13:15;25.70;99.90
23532;DHT22;11943;52.270;20.978;2023-06-22T08:15:40;25.80;99.90
23532;DHT22;11943;52.270;20.978;2023-06-22T08:18:06;26.00;99.90
23532;DHT22;11943;52.270;20.978;2023-06-22T08:20:32;26.10;99.90
23532;DHT22;11943;52.270;20.978;2023-06-22T08:22:58;26.20;99.90
23532;DHT22;11943;52.270;20.978;2023-06-22T08:25:26;26.30;99.90
23532;DHT22;11943;52.270;20.978;2023-06-22T08:27:51;26.30;99.90
23532;DHT22;11943;52.270;20.978;2023-06-22T08:30:18;26.30;99.90
23532;DHT22;11943;52.270;20.978;2023-06-22T08:32:44;26.70;98.80
23532;DHT22;11943;52.270;20.978;2023-06-22T08:35:10;26.90;97.50
23532;DHT22;11943;52.270;20.978;2023-06-22T08:37:36;26.70;96.60
23532;DHT22;11943;52.270;20.978;2023-06-22T08:40:07;26.40;98.70
23532;DHT22;11943;52.270;20.978;2023-06-22T08:42:34;26.50;98.60
23532;DHT22;11943;52.270;20.978;2023-06-22T08:45:00;26.60;94.50
23532;DHT22;11943;52.270;20.978;2023-06-22T08:47:27;26.50;92.70
23532;DHT22;11943;52.270;20.978;2023-06-22T08:49:53;26.40;93.60
23532;DHT22;11943;52.270;20.978;2023-06-22T08:52:19;26.40;93.70
23532;DHT22;11943;52.270;20.978;2023-06-22T08:54:45;26.20;92.30
23532;DHT22;11943;52.270;20.978;2023-06-22T08:57:11;26.20;94.50
23532;DHT22;11943;52.270;20.978;2023-06-22T08:59:37;26.50;92.50
23532;DHT22;11943;52.270;20.978;2023-06-22T09:02:02;26.60;92.20
23532;DHT22;11943;52.270;20.978;2023-06-22T09:04:28;26.70;90.70
23532;DHT22;11943;52.270;20.978;2023-06-22T09:06:54;26.90;90.40
23532;DHT22;11943;52.270;20.978;2023-06-22T09:09:21;26.80;83.50
23532;DHT22;11943;52.270;20.978;2023-06-22T09:11:47;26.70;86.70
23532;DHT22;11943;52.270;20.978;2023-06-22T09:14:12;26.80;88.30
23532;DHT22;11943;52.270;20.978;2023-06-22T09:16:38;26.80;77.10
23532;DHT22;11943;52.270;20.978;2023-06-22T09:19:04;27.10;79.70
23532;DHT22;11943;52.270;20.978;2023-06-22T09:21:29;27.20;72.10
23532;DHT22;11943;52.270;20.978;2023-06-22T09:23:55;27.10;73.70
23532;DHT22;11943;52.270;20.978;2023-06-22T09:26:21;27.10;70.80
23532;DHT22;11943;52.270;20.978;2023-06-22T09:28:49;27.10;73.10
23532;DHT22;11943;52.270;20.978;2023-06-22T09:31:14;27.00;68.80
23532;DHT22;11943;52.270;20.978;2023-06-22T09:33:42;27.00;73.30
23532;DHT22;11943;52.270;20.978;2023-06-22T09:36:07;27.10;72.70
23532;DHT22;11943;52.270;20.978;2023-06-22T09:38:37;27.10;70.90
23532;DHT22;11943;52.270;20.978;2023-06-22T09:41:03;27.40;70.30
23532;DHT22;11943;52.270;20.978;2023-06-22T09:43:29;27.60;69.30
23532;DHT22;11943;52.270;20.978;2023-06-22T09:45:55;27.60;68.60
23532;DHT22;11943;52.270;20.978;2023-06-22T09:48:20;27.60;69.30
23532;DHT22;11943;52.270;20.978;2023-06-22T09:50:46;27.40;63.40
23532;DHT22;11943;52.270;20.978;2023-06-22T09:53:12;27.50;60.20
23532;DHT22;11943;52.270;20.978;2023-06-22T09:55:37;27.80;59.50
23532;DHT22;11943;52.270;20.978;2023-06-22T09:58:03;27.70;63.30
23532;DHT22;11943;52.270;20.978;2023-06-22T10:00:28;27.90;65.40
23532;DHT22;11943;52.270;20.978;2023-06-22T10:02:54;27.90;67.70
23532;DHT22;11943;52.270;20.978;2023-06-22T10:05:21;28.20;66.50
23532;DHT22;11943;52.270;20.978;2023-06-22T10:07:47;28.10;65.30
23532;DHT22;11943;52.270;20.978;2023-06-22T10:10:13;28.00;65.10
23532;DHT22;11943;52.270;20.978;2023-06-22T10:12:47;28.00;64.00
23532;DHT22;11943;52.270;20.978;2023-06-22T10:15:14;28.00;64.20
23532;DHT22;11943;52.270;20.978;2023-06-22T10:17:40;28.00;66.70
23532;DHT22;11943;52.270;20.978;2023-06-22T10:20:07;28.10;62.10
23532;DHT22;11943;52.270;20.978;2023-06-22T10:22:42;28.20;60.00
23532;DHT22;11943;52.270;20.978;2023-06-22T10:25:09;28.10;63.60
23532;DHT22;11943;52.270;20.978;2023-06-22T10:27:35;28.30;61.80
23532;DHT22;11943;52.270;20.978;2023-06-22T10:30:01;28.40;63.90
23532;DHT22;11943;52.270;20.978;2023-06-22T10:32:26;28.60;65.80
23532;DHT22;11943;52.270;20.978;2023-06-22T10:34:53;28.60;62.90
23532;DHT22;11943;52.270;20.978;2023-06-22T10:37:19;28.80;63.50
23532;DHT22;11943;52.270;20.978;2023-06-22T10:39:45;28.80;58.60
23532;DHT22;11943;52.270;20.978;2023-06-22T10:42:11;28.50;58.50
23532;DHT22;11943;52.270;20.978;2023-06-22T10:44:37;28.50;62.50
23532;DHT22;11943;52.270;20.978;2023-06-22T10:47:04;28.70;62.80
23532;DHT22;11943;52.270;20.978;2023-06-22T10:49:30;28.90;60.10
23532;DHT22;11943;52.270;20.978;2023-06-22T10:51:55;28.90;58.60
23532;DHT22;11943;52.270;20.978;2023-06-22T10:54:21;28.60;61.50
23532;DHT22;11943;52.270;20.978;2023-06-22T10:56:47;28.30;63.90
23532;DHT22;11943;52.270;20.978;2023-06-22T10:59:13;28.30;62.90
23532;DHT22;11943;52.270;20.978;2023-06-22T11:01:39;28.30;62.80
23532;DHT22;11943;52.270;20.978;2023-06-22T11:04:05;28.30;61.30
23532;DHT22;11943;52.270;20.978;2023-06-22T11:06:31;28.30;61.00
23532;DHT22;11943;52.270;20.978;2023-06-22T11:08:56;28.30;61.30
23532;DHT22;11943;52.270;20.978;2023-06-22T11:11:23;28.60;63.10
23532;DHT22;11943;52.270;20.978;2023-06-22T11:13:49;28.80;61.30
23532;DHT22;11943;52.270;20.978;2023-06-22T11:16:14;28.90;56.80
23532;DHT22;11943;52.270;20.978;2023-06-22T11:18:41;28.80;57.60
23532;DHT22;11943;52.270;20.978;2023-06-22T11:21:07;28.40;57.20
23532;DHT22;11943;52.270;20.978;2023-06-22T11:23:32;28.40;60.20
23532;DHT22;11943;52.270;20.978;2023-06-22T11:25:58;28.50;58.10
23532;DHT22;11943;52.270;20.978;2023-06-22T11:28:24;28.70;57.30
23532;DHT22;11943;52.270;20.978;2023-06-22T11:30:49;28.60;56.60
23532;DHT22;11943;52.270;20.978;2023-06-22T11:33:15;28.40;57.70
23532;DHT22;11943;52.270;20.978;2023-06-22T11:35:41;28.60;59.00
23532;DHT22;11943;52.270;20.978;2023-06-22T11:38:08;28.60;60.10
23532;DHT22;11943;52.270;20.978;2023-06-22T11:40:36;28.70;59.50
23532;DHT22;11943;52.270;20.978;2023-06-22T11:43:02;28.70;58.40
23532;DHT22;11943;52.270;20.978;2023-06-22T11:45:28;28.90;58.50
23532;DHT22;11943;52.270;20.978;2023-06-22T11:47:54;29.20;57.90
23532;DHT22;11943;52.270;20.978;2023-06-22T11:50:20;29.30;58.00
23532;DHT22;11943;52.270;20.978;2023-06-22T11:52:46;29.20;57.30
23532;DHT22;11943;52.270;20.978;2023-06-22T11:55:11;29.20;57.40
23532;DHT22;11943;52.270;20.978;2023-06-22T11:57:54;29.10;56.10
23532;DHT22;11943;52.270;20.978;2023-06-22T12:00:22;29.10;57.20
23532;DHT22;11943;52.270;20.978;2023-06-22T12:02:53;28.80;56.40
23532;DHT22;11943;52.270;20.978;2023-06-22T12:05:19;28.70;57.80
23532;DHT22;11943;52.270;20.978;2023-06-22T12:07:49;28.70;58.90
23532;DHT22;11943;52.270;20.978;2023-06-22T12:10:16;28.90;58.50
23532;DHT22;11943;52.270;20.978;2023-06-22T12:12:42;28.80;58.20
23532;DHT22;11943;52.270;20.978;2023-06-22T12:15:09;28.60;56.70
23532;DHT22;11943;52.270;20.978;2023-06-22T12:17:36;28.60;58.00
23532;DHT22;11943;52.270;20.978;2023-06-22T12:20:02;28.70;56.20
23532;DHT22;11943;52.270;20.978;2023-06-22T12:22:34;28.80;55.40
23532;DHT22;11943;52.270;20.978;2023-06-22T12:25:10;28.80;54.80
23532;DHT22;11943;52.270;20.978;2023-06-22T12:27:37;28.90;56.20
23532;DHT22;11943;52.270;20.978;2023-06-22T12:30:04;29.00;56.10
23532;DHT22;11943;52.270;20.978;2023-06-22T12:32:31;28.80;55.40
23532;DHT22;11943;52.270;20.978;2023-06-22T12:34:57;28.80;56.90
23532;DHT22;11943;52.270;20.978;2023-06-22T12:37:23;29.00;56.40
23532;DHT22;11943;52.270;20.978;2023-06-22T12:39:49;29.00;57.10
23532;DHT22;11943;52.270;20.978;2023-06-22T12:42:16;29.10;55.60
23532;DHT22;11943;52.270;20.978;2023-06-22T12:44:41;29.10;55.60
23532;DHT22;11943;52.270;20.978;2023-06-22T12:47:07;29.20;55.60
23532;DHT22;11943;52.270;20.978;2023-06-22T12:49:36;29.10;54.60
23532;DHT22;11943;52.270;20.978;2023-06-22T12:52:03;29.30;55.20
23532;DHT22;11943;52.270;20.978;2023-06-22T12:54:29;29.30;55.60
23532;DHT22;11943;52.270;20.978;2023-06-22T12:56:55;29.10;55.60
23532;DHT22;11943;52.270;20.978;2023-06-22T12:59:20;29.00;56.80
23532;DHT22;11943;52.270;20.978;2023-06-22T13:01:46;28.70;56.50
23532;DHT22;11943;52.270;20.978;2023-06-22T13:04:12;28.60;56.80
23532;DHT22;11943;52.270;20.978;2023-06-22T13:06:41;28.80;56.20
23532;DHT22;11943;52.270;20.978;2023-06-22T13:09:07;28.90;56.00
23532;DHT22;11943;52.270;20.978;2023-06-22T13:11:34;28.80;54.30
23532;DHT22;11943;52.270;20.978;2023-06-22T13:13:59;28.90;54.70
23532;DHT22;11943;52.270;20.978;2023-06-22T13:16:25;29.10;54.60
23532;DHT22;11943;52.270;20.978;2023-06-22T13:18:50;29.20;54.60
23532;DHT22;11943;52.270;20.978;2023-06-22T13:21:16;29.30;54.60
23532;DHT22;11943;52.270;20.978;2023-06-22T13:23:42;29.30;54.60
23532;DHT22;11943;52.270;20.978;2023-06-22T13:26:07;29.20;55.10
23532;DHT22;11943;52.270;20.978;2023-06-22T13:28:33;29.30;56.00
23532;DHT22;11943;52.270;20.978;2023-06-22T13:30:59;29.50;54.20
23532;DHT22;11943;52.270;20.978;2023-06-22T13:33:24;29.70;55.40
23532;DHT22;11943;52.270;20.978;2023-06-22T13:35:50;29.80;51.50
23532;DHT22;11943;52.270;20.978;2023-06-22T13:38:16;29.60;52.00
23532;DHT22;11943;52.270;20.978;2023-06-22T13:40:43;29.60;54.10
23532;DHT22;11943;52.270;20.978;2023-06-22T13:43:08;29.60;56.20
23532;DHT22;11943;52.270;20.978;2023-06-22T13:45:34;29.60;56.90
23532;DHT22;11943;52.270;20.978;2023-06-22T13:48:00;29.60;58.20
23532;DHT22;11943;52.270;20.978;2023-06-22T13:50:26;29.60;57.40
23532;DHT22;11943;52.270;20.978;2023-06-22T13:52:51;29.40;56.60
23532;DHT22;11943;52.270;20.978;2023-06-22T13:55:17;29.20;57.30
23532;DHT22;11943;52.270;20.978;2023-06-22T13:57:45;29.10;58.60
23532;DHT22;11943;52.270;20.978;2023-06-22T14:00:11;29.20;58.50
23532;DHT22;11943;52.270;20.978;2023-06-22T14:02:38;29.00;57.30
23532;DHT22;11943;52.270;20.978;2023-06-22T14:05:05;28.80;56.90
23532;DHT22;11943;52.270;20.978;2023-06-22T14:07:31;29.00;57.40
23532;DHT22;11943;52.270;20.978;2023-06-22T14:09:57;29.30;59.50
23532;DHT22;11943;52.270;20.978;2023-06-22T14:12:23;29.30;57.70
23532;DHT22;11943;52.270;20.978;2023-06-22T14:14:48;29.20;58.20
23532;DHT22;11943;52.270;20.978;2023-06-22T14:17:14;28.90;57.20
23532;DHT22;11943;52.270;20.978;2023-06-22T14:19:40;28.80;57.00
23532;DHT22;11943;52.270;20.978;2023-06-22T14:22:05;29.00;57.40
23532;DHT22;11943;52.270;20.978;2023-06-22T14:24:31;29.20;57.00
23532;DHT22;11943;52.270;20.978;2023-06-22T14:26:57;29.30;57.10
23532;DHT22;11943;52.270;20.978;2023-06-22T14:29:23;29.60;57.50
23532;DHT22;11943;52.270;20.978;2023-06-22T14:31:49;29.60;56.90
23532;DHT22;11943;52.270;20.978;2023-06-22T14:34:15;29.60;57.40
23532;DHT22;11943;52.270;20.978;2023-06-22T14:36:41;29.90;57.00
23532;DHT22;11943;52.270;20.978;2023-06-22T14:39:08;29.90;56.80
23532;DHT22;11943;52.270;20.978;2023-06-22T14:41:33;29.80;56.40
23532;DHT22;11943;52.270;20.978;2023-06-22T14:43:59;29.40;56.80
23532;DHT22;11943;52.270;20.978;2023-06-22T14:46:25;29.10;56.90
23532;DHT22;11943;52.270;20.978;2023-06-22T14:48:50;29.10;54.80
23532;DHT22;11943;52.270;20.978;2023-06-22T14:51:16;29.00;56.80
23532;DHT22;11943;52.270;20.978;2023-06-22T14:53:43;28.70;56.70
23532;DHT22;11943;52.270;20.978;2023-06-22T14:56:09;28.70;56.90
23532;DHT22;11943;52.270;20.978;2023-06-22T14:58:35;28.80;56.80
23532;DHT22;11943;52.270;20.978;2023-06-22T15:01:03;28.90;56.00
23532;DHT22;11943;52.270;20.978;2023-06-22T15:03:33;28.80;56.10
23532;DHT22;11943;52.270;20.978;2023-06-22T15:06:01;28.70;56.10
23532;DHT22;11943;52.270;20.978;2023-06-22T15:08:26;28.80;56.10
23532;DHT22;11943;52.270;20.978;2023-06-22T15:10:52;28.70;56.00
23532;DHT22;11943;52.270;20.978;2023-06-22T15:13:18;28.50;54.60
23532;DHT22;11943;52.270;20.978;2023-06-22T15:15:46;28.50;54.70
23532;DHT22;11943;52.270;20.978;2023-06-22T15:18:14;28.40;55.20
23532;DHT22;11943;52.270;20.978;2023-06-22T15:20:40;28.40;55.30